createdAt,value
2022-08-26T00:01:30.730Z,61.68
2022-08-26T00:03:58.606Z,62.48
2022-08-26T00:06:26.054Z,62.56
2022-08-26T00:08:53.275Z,62.93
2022-08-26T00:11:26.738Z,64.14
2022-08-26T00:13:54.976Z,64.94
2022-08-26T00:16:23.481Z,65.65
2022-08-26T00:18:50.227Z,65.43
2022-08-26T00:21:17.466Z,66.23
2022-08-26T00:23:44.362Z,67.40
2022-08-26T00:26:11.236Z,67.61
2022-08-26T00:28:38.101Z,68.23
2022-08-26T00:31:07.096Z,68.80
2022-08-26T00:33:34.076Z,69.63
2022-08-26T00:36:01.635Z,68.95
2022-08-26T00:38:29.222Z,70.50
2022-08-26T00:40:57.380Z,71.11
2022-08-26T00:43:26.062Z,70.95
2022-08-26T00:46:00.840Z,71.68
2022-08-26T00:48:31.958Z,71.72
2022-08-26T00:51:04.476Z,72.41
2022-08-26T00:53:36.774Z,72.40
2022-08-26T00:56:09.341Z,73.56
2022-08-26T00:58:43.025Z,73.58
2022-08-26T01:01:11.571Z,74.91
2022-08-26T01:03:39.138Z,74.72
2022-08-26T01:06:11.459Z,75.85
2022-08-26T01:08:40.477Z,74.88
2022-08-26T01:11:08.782Z,74.62
2022-08-26T01:13:37.277Z,76.25
2022-08-26T01:16:06.282Z,77.35
2022-08-26T01:18:33.417Z,76.72
2022-08-26T01:21:25.073Z,77.44
2022-08-26T01:23:57.762Z,77.96
2022-08-26T01:26:29.643Z,77.57
2022-08-26T01:28:58.717Z,76.65
2022-08-26T01:31:29.976Z,76.91
2022-08-26T01:34:06.614Z,77.20
2022-08-26T01:36:37.796Z,78.56
2022-08-26T01:39:07.343Z,78.76
2022-08-26T01:41:36.441Z,78.28
2022-08-26T01:44:06.528Z,78.17
2022-08-26T01:46:37.026Z,78.80
2022-08-26T01:49:06.720Z,79.05
2022-08-26T01:51:37.602Z,80.61
2022-08-26T01:54:07.323Z,80.20
2022-08-26T01:56:39.278Z,79.77
2022-08-26T01:59:10.891Z,79.79
2022-08-26T02:01:39.204Z,80.67
2022-08-26T02:04:30.792Z,79.59
2022-08-26T02:06:58.125Z,81.02
2022-08-26T02:09:26.414Z,82.20
2022-08-26T02:11:54.005Z,82.09
2022-08-26T02:14:26.908Z,81.96
2022-08-26T02:16:56.011Z,82.18
2022-08-26T02:19:30.568Z,82.61
2022-08-26T02:22:01.319Z,83.98
2022-08-26T02:24:46.067Z,83.86
2022-08-26T02:27:14.776Z,84.02
2022-08-26T02:29:44.766Z,84.87
2022-08-26T02:32:11.495Z,86.77
2022-08-26T02:34:38.023Z,86.72
2022-08-26T02:37:10.025Z,87.26
2022-08-26T02:39:39.082Z,88.71
2022-08-26T02:42:06.158Z,87.48
2022-08-26T02:44:33.553Z,88.38
2022-08-26T02:47:00.322Z,89.88
2022-08-26T02:49:27.873Z,90.52
2022-08-26T02:51:54.580Z,90.29
2022-08-26T02:54:21.605Z,91.22
2022-08-26T02:56:48.873Z,90.61
2022-08-26T02:59:15.496Z,90.20
2022-08-26T03:01:42.786Z,91.21
2022-08-26T03:04:12.162Z,91.69
2022-08-26T03:06:38.983Z,93.36
2022-08-26T03:09:07.827Z,92.43
2022-08-26T03:11:36.659Z,93.58
2022-08-26T03:14:04.344Z,93.89
2022-08-26T03:16:35.920Z,94.25
2022-08-26T03:19:05.402Z,93.75
2022-08-26T03:21:33.012Z,93.91
2022-08-26T03:24:00.290Z,94.53
2022-08-26T03:26:27.927Z,94.98
2022-08-26T03:29:14.178Z,94.90
2022-08-26T03:31:41.239Z,94.19
2022-08-26T03:34:09.595Z,94.05
2022-08-26T03:36:38.699Z,93.91
2022-08-26T03:39:06.301Z,93.99
2022-08-26T03:41:35.822Z,93.94
2022-08-26T03:44:04.270Z,93.95
2022-08-26T03:46:32.280Z,93.93
2022-08-26T03:49:00.396Z,93.98
2022-08-26T03:51:28.845Z,94.44
2022-08-26T03:53:55.905Z,93.76
2022-08-26T03:56:23.867Z,93.53
2022-08-26T03:58:51.007Z,94.48
2022-08-26T04:01:17.712Z,94.10
2022-08-26T04:04:00.069Z,93.96
2022-08-26T04:06:31.311Z,93.33
2022-08-26T04:09:00.757Z,92.93
2022-08-26T04:11:30.397Z,93.26
2022-08-26T04:14:01.852Z,93.77
2022-08-26T04:16:29.486Z,94.16
2022-08-26T04:18:57.424Z,93.31
2022-08-26T04:21:25.443Z,93.33
2022-08-26T04:23:54.237Z,93.37
2022-08-26T04:26:23.361Z,92.83
2022-08-26T04:28:52.254Z,92.69
2022-08-26T04:31:19.689Z,92.63
2022-08-26T04:33:49.881Z,92.09
2022-08-26T04:36:17.813Z,92.60
2022-08-26T04:38:47.413Z,92.43
2022-08-26T04:41:15.285Z,91.43
2022-08-26T04:43:45.544Z,91.79
2022-08-26T04:46:13.878Z,91.43
2022-08-26T04:48:42.020Z,91.49
2022-08-26T04:51:09.921Z,90.83
2022-08-26T04:53:37.093Z,90.35
2022-08-26T04:56:04.680Z,90.50
2022-08-26T04:58:32.011Z,90.84
2022-08-26T05:00:58.635Z,90.97
2022-08-26T05:03:30.281Z,91.09
2022-08-26T05:05:58.372Z,90.30
2022-08-26T05:08:25.339Z,90.43
2022-08-26T05:10:55.886Z,91.67
2022-08-26T05:13:25.293Z,92.42
2022-08-26T05:15:52.480Z,91.53
2022-08-26T05:18:23.114Z,91.05
2022-08-26T05:20:53.995Z,90.90
2022-08-26T05:23:22.872Z,91.05
2022-08-26T05:26:01.785Z,90.08
2022-08-26T05:28:31.923Z,91.07
2022-08-26T05:30:58.788Z,92.08
2022-08-26T05:33:25.416Z,91.90
2022-08-26T05:35:52.294Z,92.07
2022-08-26T05:38:21.984Z,90.70
2022-08-26T05:40:52.734Z,90.10
2022-08-26T05:43:20.696Z,90.81
2022-08-26T05:45:49.442Z,91.33
2022-08-26T05:48:22.873Z,91.63
2022-08-26T05:50:53.240Z,91.20
2022-08-26T05:53:21.398Z,91.28
2022-08-26T05:55:52.957Z,90.76
2022-08-26T05:58:21.314Z,91.13
2022-08-26T06:01:07.502Z,90.06
2022-08-26T06:03:36.084Z,90.14
2022-08-26T06:06:07.395Z,88.38
2022-08-26T06:08:35.278Z,87.72
2022-08-26T06:11:05.585Z,87.77
2022-08-26T06:13:33.493Z,87.40
2022-08-26T06:16:05.319Z,87.16
2022-08-26T06:18:36.311Z,87.98
2022-08-26T06:21:27.163Z,87.67
2022-08-26T06:24:15.374Z,87.94
2022-08-26T06:26:46.889Z,87.73
2022-08-26T06:29:24.282Z,87.56
2022-08-26T06:31:53.077Z,87.47
2022-08-26T06:34:19.923Z,88.05
2022-08-26T06:36:47.717Z,87.95
2022-08-26T06:39:16.500Z,87.79
2022-08-26T06:41:44.860Z,87.91
2022-08-26T06:44:17.309Z,87.35
2022-08-26T06:46:44.221Z,86.39
2022-08-26T06:49:12.352Z,86.67
2022-08-26T06:51:40.619Z,86.25
2022-08-26T06:54:08.034Z,86.51
2022-08-26T06:56:43.030Z,86.46
2022-08-26T06:59:12.560Z,86.17
2022-08-26T07:01:44.609Z,86.63
2022-08-26T07:04:15.556Z,86.56
2022-08-26T07:06:47.118Z,86.92
2022-08-26T07:09:13.665Z,86.09
2022-08-26T07:11:41.457Z,86.89
2022-08-26T07:14:08.976Z,86.39
2022-08-26T07:16:35.925Z,85.84
2022-08-26T07:19:10.637Z,85.81
2022-08-26T07:21:41.525Z,86.24
2022-08-26T07:24:09.082Z,87.23
2022-08-26T07:26:38.455Z,86.94
2022-08-26T07:29:06.771Z,87.00
2022-08-26T07:31:39.457Z,86.54
2022-08-26T07:34:09.321Z,86.06
2022-08-26T07:36:36.453Z,86.66
2022-08-26T07:39:03.416Z,86.26
2022-08-26T07:44:01.516Z,85.57
2022-08-26T07:46:30.338Z,85.11
2022-08-26T07:48:58.191Z,84.69
2022-08-26T07:51:25.519Z,85.17
2022-08-26T07:53:53.180Z,86.14
2022-08-26T07:56:22.977Z,85.14
2022-08-26T07:58:51.595Z,84.20
2022-08-26T08:01:24.143Z,83.72
2022-08-26T08:03:53.274Z,83.71
2022-08-26T08:06:22.457Z,83.00
2022-08-26T08:08:53.690Z,82.41
2022-08-26T08:11:23.084Z,83.84
2022-08-26T08:13:55.960Z,83.73
2022-08-26T08:16:32.387Z,84.09
2022-08-26T08:19:00.222Z,83.60
2022-08-26T08:21:27.772Z,82.81
2022-08-26T08:23:56.593Z,82.78
2022-08-26T08:26:24.974Z,81.91
2022-08-26T08:28:55.544Z,82.39
2022-08-26T08:31:55.923Z,82.79
2022-08-26T08:34:15.271Z,82.20
2022-08-26T08:36:41.946Z,81.73
2022-08-26T08:39:09.306Z,81.61
2022-08-26T08:42:04.097Z,82.43
2022-08-26T08:44:30.997Z,82.06
2022-08-26T08:47:28.682Z,82.02
2022-08-26T08:50:00.236Z,82.16
2022-08-26T08:52:37.803Z,82.02
2022-08-26T08:55:11.088Z,82.94
2022-08-26T08:57:55.782Z,82.58
2022-08-26T09:00:39.834Z,82.32
2022-08-26T09:03:32.354Z,81.70
2022-08-26T09:06:01.589Z,80.57
2022-08-26T09:08:35.066Z,81.08
2022-08-26T09:11:03.617Z,80.44
2022-08-26T09:13:31.822Z,79.50
2022-08-26T09:16:03.483Z,79.52
2022-08-26T09:18:45.998Z,79.13
2022-08-26T09:21:15.495Z,78.60
2022-08-26T09:23:49.174Z,78.27
2022-08-26T09:26:30.714Z,78.33
2022-08-26T09:29:00.649Z,77.91
2022-08-26T09:31:35.740Z,77.81
2022-08-26T09:34:24.259Z,77.76
2022-08-26T09:36:54.741Z,78.07
2022-08-26T09:39:28.251Z,77.40
2022-08-26T09:42:03.576Z,77.00
2022-08-26T09:44:31.214Z,77.45
2022-08-26T09:47:08.672Z,76.79
2022-08-26T09:49:38.737Z,76.69
2022-08-26T09:52:17.589Z,77.11
2022-08-26T09:54:57.206Z,77.50
2022-08-26T09:57:28.979Z,77.88
2022-08-26T09:59:56.141Z,76.98
2022-08-26T10:02:31.886Z,76.52
2022-08-26T10:04:59.199Z,76.88
2022-08-26T10:07:44.653Z,78.28
2022-08-26T10:10:17.152Z,77.78
2022-08-26T10:13:17.597Z,78.17
2022-08-26T10:15:55.607Z,79.33
2022-08-26T10:18:35.445Z,78.43
2022-08-26T10:21:18.147Z,78.65
2022-08-26T10:23:51.681Z,78.36
2022-08-26T10:26:26.610Z,78.12
2022-08-26T10:29:15.594Z,77.92
2022-08-26T10:31:52.005Z,78.20
2022-08-26T10:34:19.057Z,77.33
2022-08-26T10:37:13.678Z,78.76
2022-08-26T10:40:07.590Z,78.46
2022-08-26T10:42:35.351Z,77.30
2022-08-26T10:45:28.426Z,76.00
2022-08-26T10:48:53.561Z,76.38
2022-08-26T10:51:26.932Z,75.45
2022-08-26T10:54:06.648Z,75.40
2022-08-26T10:56:44.624Z,74.69
2022-08-26T10:59:36.831Z,74.96
2022-08-26T11:02:14.690Z,73.13
2022-08-26T11:04:48.746Z,71.49
2022-08-26T11:07:40.962Z,71.71
2022-08-26T11:10:16.649Z,71.43
2022-08-26T11:12:45.246Z,71.02
2022-08-26T11:15:24.603Z,71.31
2022-08-26T11:17:51.414Z,70.58
2022-08-26T11:20:29.950Z,71.22
2022-08-26T11:23:17.061Z,70.83
2022-08-26T11:25:55.849Z,70.62
2022-08-26T11:28:44.525Z,69.99
2022-08-26T11:31:32.579Z,69.95
2022-08-26T11:34:01.183Z,69.82
2022-08-26T11:36:47.655Z,69.65
2022-08-26T11:39:48.531Z,70.20
2022-08-26T11:42:20.487Z,71.85
2022-08-26T11:44:49.665Z,72.82
2022-08-26T11:47:26.705Z,72.97
2022-08-26T11:50:28.690Z,71.89
2022-08-26T11:53:06.165Z,70.73
2022-08-26T11:55:36.456Z,71.34
2022-08-26T11:58:05.079Z,72.20
2022-08-26T12:00:57.946Z,71.19
2022-08-26T12:03:44.798Z,70.25
2022-08-26T12:09:01.377Z,69.23
2022-08-26T12:11:39.001Z,69.26
2022-08-26T12:14:16.692Z,68.96
2022-08-26T12:16:43.479Z,69.22
2022-08-26T12:19:32.560Z,68.49
2022-08-26T12:22:25.688Z,68.06
2022-08-26T12:25:08.420Z,68.13
2022-08-26T12:27:47.191Z,69.20
2022-08-26T12:30:24.745Z,69.19
2022-08-26T12:33:10.832Z,69.32
2022-08-26T12:35:52.848Z,68.16
2022-08-26T12:38:23.912Z,68.40
2022-08-26T12:40:50.642Z,69.31
2022-08-26T12:43:42.337Z,72.31
2022-08-26T12:46:26.800Z,72.83
2022-08-26T12:48:53.568Z,73.55
2022-08-26T12:51:26.504Z,73.90
2022-08-26T12:53:53.939Z,73.94
2022-08-26T12:56:33.984Z,74.46
2022-08-26T12:59:06.031Z,75.00
2022-08-26T13:01:42.765Z,75.69
2022-08-26T13:04:32.017Z,75.54
2022-08-26T13:07:21.466Z,75.80
2022-08-26T13:09:49.174Z,75.90
2022-08-26T13:12:28.647Z,76.26
2022-08-26T13:14:56.390Z,76.61
2022-08-26T13:17:22.970Z,77.01
2022-08-26T13:19:49.519Z,77.21
2022-08-26T13:22:20.230Z,77.20
2022-08-26T13:24:46.838Z,77.33
2022-08-26T13:27:14.629Z,77.62
2022-08-26T13:29:41.700Z,77.94
2022-08-26T13:32:08.950Z,78.13
2022-08-26T13:34:37.015Z,78.12
2022-08-26T13:37:04.615Z,78.18
2022-08-26T13:39:31.181Z,77.78
2022-08-26T13:41:57.824Z,78.08
2022-08-26T13:44:24.383Z,78.49
2022-08-26T13:46:51.231Z,78.58
2022-08-26T13:49:17.768Z,79.63
2022-08-26T13:51:44.397Z,79.68
2022-08-26T13:54:10.985Z,79.32
2022-08-26T13:56:37.640Z,78.84
2022-08-26T13:59:05.549Z,79.39
2022-08-26T14:01:33.158Z,79.58
2022-08-26T14:03:59.936Z,79.81
2022-08-26T14:06:26.746Z,80.71
2022-08-26T14:08:53.344Z,80.42
2022-08-26T14:11:21.280Z,81.03
2022-08-26T14:13:47.855Z,80.62
2022-08-26T14:16:59.154Z,79.74
2022-08-26T14:19:27.089Z,81.25
2022-08-26T14:21:53.775Z,81.32
2022-08-26T14:24:20.291Z,81.06
2022-08-26T14:26:48.452Z,81.13
2022-08-26T14:29:16.775Z,80.04
2022-08-26T14:31:44.106Z,79.92
2022-08-26T14:34:12.958Z,79.40
2022-08-26T14:36:39.497Z,78.75
2022-08-26T14:39:09.850Z,77.92
2022-08-26T14:41:56.454Z,77.93
2022-08-26T14:44:29.591Z,77.64
2022-08-26T14:46:56.744Z,76.95
2022-08-26T14:49:25.098Z,77.06
2022-08-26T14:51:51.648Z,76.81
2022-08-26T14:54:19.302Z,75.97
2022-08-26T14:56:55.379Z,75.28
2022-08-26T14:59:26.109Z,74.83
2022-08-26T15:01:54.323Z,73.22
2022-08-26T15:04:21.830Z,73.56
2022-08-26T15:06:49.287Z,73.75
2022-08-26T15:09:16.485Z,73.86
2022-08-26T15:11:43.101Z,73.38
2022-08-26T15:14:14.761Z,74.01
2022-08-26T15:16:50.915Z,74.12
2022-08-26T15:19:18.346Z,72.96
2022-08-26T15:21:45.544Z,72.87
2022-08-26T15:24:12.723Z,73.14
2022-08-26T15:26:39.367Z,72.52
2022-08-26T15:31:33.975Z,72.44
2022-08-26T15:34:04.265Z,72.68
2022-08-26T15:36:32.308Z,72.91
2022-08-26T15:39:00.292Z,72.90
2022-08-26T15:41:27.950Z,73.50
2022-08-26T15:43:54.532Z,73.88
2022-08-26T15:46:21.366Z,73.13
2022-08-26T15:48:48.068Z,72.85
2022-08-26T15:51:22.817Z,73.18
2022-08-26T15:53:49.768Z,73.22
2022-08-26T15:56:17.208Z,73.47
2022-08-26T15:58:44.873Z,73.34
2022-08-26T16:01:11.670Z,73.30
2022-08-26T16:03:38.233Z,73.33
2022-08-26T16:06:05.076Z,73.60
2022-08-26T16:08:36.459Z,72.82
2022-08-26T16:11:04.143Z,72.83
2022-08-26T16:13:39.494Z,72.70
2022-08-26T16:16:07.040Z,72.98
2022-08-26T16:18:33.973Z,72.78
2022-08-26T16:21:13.309Z,73.04
2022-08-26T16:23:40.727Z,73.60
2022-08-26T16:26:22.996Z,72.82
2022-08-26T16:28:49.655Z,72.50
2022-08-26T16:31:16.272Z,72.03
2022-08-26T16:33:43.184Z,71.80
2022-08-26T16:36:10.839Z,71.40
2022-08-26T16:38:38.580Z,71.60
2022-08-26T16:41:05.950Z,71.85
2022-08-26T16:43:32.545Z,71.80
2022-08-26T16:45:59.334Z,71.65
2022-08-26T16:48:27.031Z,71.57
2022-08-26T16:50:55.364Z,71.94
2022-08-26T16:53:22.908Z,72.10
2022-08-26T16:55:50.558Z,72.62
2022-08-26T16:58:17.837Z,72.70
2022-08-26T17:00:45.182Z,72.17
2022-08-26T17:03:11.866Z,72.07
2022-08-26T17:05:38.864Z,72.05
2022-08-26T17:08:05.527Z,72.31
2022-08-26T17:10:33.013Z,72.67
2022-08-26T17:12:59.650Z,72.88
2022-08-26T17:15:26.789Z,72.77
2022-08-26T17:17:54.442Z,73.18
2022-08-26T17:20:24.244Z,73.38
2022-08-26T17:22:52.810Z,73.35
2022-08-26T17:25:29.076Z,73.43
2022-08-26T17:30:27.999Z,73.35
2022-08-26T17:32:57.971Z,72.93
2022-08-26T17:35:24.997Z,73.06
2022-08-26T17:37:52.695Z,72.85
2022-08-26T17:40:21.841Z,72.70
2022-08-26T17:42:48.766Z,73.21
2022-08-26T17:45:16.517Z,73.31
2022-08-26T17:47:44.031Z,74.03
2022-08-26T17:50:14.154Z,73.73
2022-08-26T17:52:42.001Z,73.62
2022-08-26T17:55:10.439Z,73.42
2022-08-26T17:57:40.509Z,73.58
2022-08-26T18:00:17.454Z,74.07
2022-08-26T18:02:44.136Z,75.00
2022-08-26T18:05:14.024Z,74.55
2022-08-26T18:07:43.679Z,75.41
2022-08-26T18:10:13.746Z,74.48
2022-08-26T18:12:41.501Z,74.26
2022-08-26T18:15:09.516Z,74.36
2022-08-26T18:17:36.308Z,74.10
2022-08-26T18:20:03.098Z,74.50
2022-08-26T18:22:30.066Z,74.71
2022-08-26T18:24:58.717Z,75.21
2022-08-26T18:27:25.844Z,74.72
2022-08-26T18:29:52.432Z,74.42
2022-08-26T18:32:18.994Z,74.65
2022-08-26T18:34:45.544Z,74.70
2022-08-26T18:37:14.262Z,74.48
2022-08-26T18:39:41.635Z,74.23
2022-08-26T18:42:08.898Z,73.56
2022-08-26T18:44:35.533Z,73.99
2022-08-26T18:47:02.241Z,73.66
2022-08-26T18:49:29.327Z,73.45
2022-08-26T18:51:55.983Z,73.53
2022-08-26T18:54:22.619Z,73.75
2022-08-26T18:56:49.398Z,73.50
2022-08-26T18:59:16.069Z,72.97
2022-08-26T19:01:43.036Z,72.77
2022-08-26T19:04:14.715Z,72.91
2022-08-26T19:06:43.414Z,72.91
2022-08-26T19:09:12.008Z,72.87
2022-08-26T19:11:42.867Z,73.02
2022-08-26T19:14:15.905Z,73.15
2022-08-26T19:16:45.659Z,73.58
2022-08-26T19:19:13.679Z,73.29
2022-08-26T19:21:40.830Z,73.05
2022-08-26T19:24:17.413Z,73.89
2022-08-26T19:26:46.693Z,74.39
2022-08-26T19:29:13.778Z,74.44
2022-08-26T19:31:42.111Z,74.72
2022-08-26T19:34:11.259Z,74.91
2022-08-26T19:36:38.272Z,75.55
2022-08-26T19:39:09.660Z,75.62
2022-08-26T19:41:38.740Z,76.42
2022-08-26T19:44:10.402Z,76.82
2022-08-26T19:49:05.256Z,76.99
2022-08-26T19:51:33.920Z,76.40
2022-08-26T19:54:01.569Z,76.73
2022-08-26T19:56:28.815Z,76.81
2022-08-26T19:58:56.621Z,77.64
2022-08-26T20:01:23.454Z,77.66
2022-08-26T20:03:50.441Z,77.65
2022-08-26T20:06:17.103Z,78.21
2022-08-26T20:08:44.778Z,78.57
2022-08-26T20:11:14.620Z,78.56
2022-08-26T20:13:42.504Z,79.01
2022-08-26T20:16:11.792Z,78.94
2022-08-26T20:19:00.806Z,78.91
2022-08-26T20:21:34.121Z,79.32
2022-08-26T20:24:03.978Z,79.08
2022-08-26T20:26:33.162Z,79.26
2022-08-26T20:28:59.767Z,79.53
2022-08-26T20:31:26.750Z,79.78
2022-08-26T20:33:54.231Z,79.85
2022-08-26T20:36:23.051Z,79.09
2022-08-26T20:38:50.250Z,78.53
2022-08-26T20:41:17.838Z,78.41
2022-08-26T20:43:46.091Z,77.60
2022-08-26T20:46:16.910Z,77.27
2022-08-26T20:48:45.677Z,77.07
2022-08-26T20:51:12.385Z,76.87
2022-08-26T20:53:38.982Z,76.30
2022-08-26T20:56:08.941Z,75.39
2022-08-26T20:58:36.045Z,74.36
2022-08-26T21:01:07.355Z,73.88
2022-08-26T21:03:35.922Z,74.23
2022-08-26T21:06:03.609Z,74.64
2022-08-26T21:08:30.797Z,74.45
2022-08-26T21:11:00.442Z,74.19
2022-08-26T21:13:27.067Z,74.15
2022-08-26T21:15:57.571Z,74.14
2022-08-26T21:18:24.305Z,74.67
2022-08-26T21:20:51.592Z,74.50
2022-08-26T21:23:18.689Z,74.69
2022-08-26T21:25:46.479Z,74.83
2022-08-26T21:28:13.281Z,75.68
2022-08-26T21:30:40.897Z,75.78
2022-08-26T21:33:08.438Z,75.92
2022-08-26T21:35:35.707Z,76.33
2022-08-26T21:38:02.281Z,76.97
2022-08-26T21:40:28.996Z,76.77
2022-08-26T21:42:55.612Z,76.70
2022-08-26T21:45:22.208Z,76.82
2022-08-26T21:47:48.787Z,77.12
2022-08-26T21:50:15.467Z,76.98
2022-08-26T21:52:42.013Z,77.37
2022-08-26T21:55:11.709Z,77.15
2022-08-26T21:57:38.607Z,77.55
2022-08-26T22:00:09.010Z,77.80
2022-08-26T22:02:36.919Z,78.08
2022-08-26T22:05:04.283Z,78.13
2022-08-26T22:07:31.068Z,78.92
2022-08-26T22:09:57.835Z,78.01
2022-08-26T22:12:24.654Z,76.80
2022-08-26T22:14:51.272Z,78.05
2022-08-26T22:17:17.948Z,78.09
2022-08-26T22:19:46.365Z,78.16
2022-08-26T22:22:14.843Z,78.24
2022-08-26T22:24:43.289Z,77.63
2022-08-26T22:27:11.919Z,77.02
2022-08-26T22:29:38.677Z,77.67
2022-08-26T22:32:05.458Z,78.75
2022-08-26T22:34:32.145Z,80.13
2022-08-26T22:36:59.504Z,80.92
2022-08-26T22:39:26.629Z,81.70
2022-08-26T22:41:53.922Z,83.07
2022-08-26T22:44:22.150Z,84.18
2022-08-26T22:46:50.763Z,83.02
2022-08-26T22:49:17.478Z,81.54
2022-08-26T22:51:45.304Z,81.73
2022-08-26T22:54:12.552Z,81.94
2022-08-26T22:56:40.035Z,82.30
2022-08-26T22:59:07.989Z,83.27
2022-08-26T23:01:36.939Z,83.36
2022-08-26T23:04:05.256Z,84.75
2022-08-26T23:06:33.967Z,85.84
2022-08-26T23:09:00.511Z,84.94
2022-08-26T23:11:27.038Z,85.70
2022-08-26T23:13:53.634Z,84.76
2022-08-26T23:16:21.080Z,84.10
2022-08-26T23:18:47.786Z,85.41
2022-08-26T23:21:14.358Z,85.64
2022-08-26T23:23:41.355Z,87.48
2022-08-26T23:26:08.200Z,87.87
2022-08-26T23:28:39.564Z,88.07
2022-08-26T23:31:07.361Z,90.40
2022-08-26T23:33:52.616Z,89.85
2022-08-26T23:36:22.717Z,89.53
2022-08-26T23:38:52.953Z,90.28
2022-08-26T23:41:23.160Z,91.14
2022-08-26T23:43:50.571Z,93.52
2022-08-26T23:46:18.432Z,94.80
2022-08-26T23:48:45.015Z,94.52
2022-08-26T23:51:30.621Z,96.61
2022-08-26T23:53:57.891Z,96.65
2022-08-26T23:56:25.005Z,95.78
2022-08-26T23:58:54.026Z,96.29
